Time;durP1;ratioP1;P1;durP2;ratioP2;P2;SDS_P1;SDS_P2;PMS_P1;PMS_P2;Temp;Humidity;BMP_temperature;BMP_pressure;BME280_temperature;BME280_humidity;BME280_pressure;Samples;Min_cycle;Max_cycle;Signal;HPM_P1;HPM_P2
2023/01/01 00:02:06;;;;;;;37.38;17.58;;;13.40;99.90;;;;;;5047778;28;20132;-62
2023/01/01 00:04:33;;;;;;;24.17;12.75;;;13.40;99.90;;;;;;5049029;28;20064;-62
2023/01/01 00:06:59;;;;;;;34.65;18.35;;;13.40;99.90;;;;;;5049388;28;20052;-62
2023/01/01 00:12:10;;;;;;;28.10;13.82;;;13.50;99.90;;;;;;5052960;28;20055;-62
2023/01/01 00:14:38;;;;;;;52.15;27.48;;;13.50;99.90;;;;;;5050908;28;20075;-62
2023/01/01 00:17:04;;;;;;;28.63;16.50;;;13.50;99.90;;;;;;5048186;28;20075;-62
2023/01/01 00:19:30;;;;;;;27.92;14.32;;;13.50;99.90;;;;;;5051333;28;20094;-62
2023/01/01 00:21:55;;;;;;;41.08;16.55;;;13.50;99.90;;;;;;5054641;28;20123;-62
2023/01/01 00:24:21;;;;;;;45.55;27.27;;;13.50;99.90;;;;;;5054840;28;20045;-62
2023/01/01 00:26:47;;;;;;;29.98;14.65;;;13.50;99.90;;;;;;5054950;28;20037;-62
2023/01/01 00:29:13;;;;;;;29.95;13.05;;;13.50;99.90;;;;;;5051766;28;20037;-62
2023/01/01 00:31:38;;;;;;;28.50;11.85;;;13.50;99.90;;;;;;5056129;28;20135;-63
2023/01/01 00:34:04;;;;;;;31.30;11.40;;;13.40;99.90;;;;;;5055666;28;20053;-62
2023/01/01 00:36:30;;;;;;;29.33;10.23;;;13.40;99.90;;;;;;5053486;28;20040;-61
2023/01/01 00:38:56;;;;;;;21.63;10.07;;;13.40;99.90;;;;;;5041149;28;20051;-62
2023/01/01 00:41:22;;;;;;;26.30;10.30;;;13.40;99.90;;;;;;5055345;28;20687;-62
2023/01/01 00:43:48;;;;;;;22.02;11.07;;;13.40;99.90;;;;;;5045257;28;20083;-62
2023/01/01 00:46:14;;;;;;;24.17;10.70;;;13.40;99.90;;;;;;5056800;28;20499;-62
2023/01/01 00:48:40;;;;;;;25.05;11.80;;;13.40;99.90;;;;;;5053100;28;20040;-62
2023/01/01 00:51:06;;;;;;;32.38;13.65;;;13.30;99.90;;;;;;5052235;28;20478;-62
2023/01/01 00:53:32;;;;;;;27.88;14.18;;;13.30;99.90;;;;;;5052210;28;20043;-62
2023/01/01 00:55:58;;;;;;;24.33;14.88;;;13.30;99.90;;;;;;5051359;28;20072;-62
2023/01/01 00:58:24;;;;;;;30.88;16.20;;;13.30;99.90;;;;;;5054090;28;20122;-62
2023/01/01 01:00:51;;;;;;;29.02;17.33;;;13.20;99.90;;;;;;5047542;28;20059;-62
2023/01/01 01:03:27;;;;;;;37.17;20.13;;;13.30;99.90;;;;;;5041930;28;20233;-62
2023/01/01 01:05:58;;;;;;;36.63;20.58;;;13.30;99.90;;;;;;5050649;28;20048;-62
2023/01/01 01:08:25;;;;;;;46.13;24.55;;;13.20;99.90;;;;;;5045551;28;20101;-62
2023/01/01 01:10:52;;;;;;;46.55;25.20;;;13.20;99.90;;;;;;5049722;28;20053;-62
2023/01/01 01:13:18;;;;;;;46.58;28.70;;;13.20;99.90;;;;;;5033292;28;20143;-62
2023/01/01 01:15:44;;;;;;;46.40;27.33;;;13.10;99.90;;;;;;5047041;28;20112;-62
2023/01/01 01:18:09;;;;;;;49.03;28.58;;;13.10;99.90;;;;;;5046205;28;20057;-62
2023/01/01 01:20:35;;;;;;;54.25;27.90;;;13.00;99.90;;;;;;5042639;28;20055;-62
2023/01/01 01:23:01;;;;;;;46.63;29.13;;;13.00;99.90;;;;;;5053517;28;20131;-62
2023/01/01 01:25:27;;;;;;;50.00;28.95;;;13.00;99.90;;;;;;5050279;28;20194;-61
2023/01/01 01:27:53;;;;;;;55.85;30.42;;;13.00;99.90;;;;;;5048796;28;20040;-62
2023/01/01 01:30:18;;;;;;;50.30;31.35;;;13.00;99.90;;;;;;5046661;28;20063;-62
2023/01/01 01:32:44;;;;;;;54.88;32.38;;;13.00;99.90;;;;;;5048623;28;20044;-62
2023/01/01 01:35:10;;;;;;;53.30;34.15;;;13.00;99.90;;;;;;5048702;28;20041;-62
2023/01/01 01:37:36;;;;;;;52.72;31.95;;;12.90;99.90;;;;;;5050577;28;20103;-61
2023/01/01 01:40:02;;;;;;;48.70;32.47;;;12.90;99.90;;;;;;5047818;28;20120;-62
2023/01/01 01:42:27;;;;;;;49.33;34.28;;;12.90;99.90;;;;;;5057378;28;20130;-62
2023/01/01 01:44:59;;;;;;;55.20;36.80;;;12.90;99.90;;;;;;5042267;28;20041;-62
2023/01/01 01:47:28;;;;;;;64.35;37.38;;;12.80;99.90;;;;;;5046375;28;20055;-62
2023/01/01 01:50:12;;;;;;;57.13;36.55;;;12.70;99.90;;;;;;5050525;28;20041;-62
2023/01/01 01:52:46;;;;;;;56.67;35.42;;;12.70;99.90;;;;;;5049046;28;20064;-62
2023/01/01 01:55:12;;;;;;;57.30;37.15;;;12.60;99.90;;;;;;5044088;28;20068;-62
2023/01/01 01:57:40;;;;;;;57.63;36.55;;;12.60;99.90;;;;;;5046735;28;20047;-61
2023/01/01 02:00:06;;;;;;;53.83;36.92;;;12.50;99.90;;;;;;5041277;28;20045;-61
2023/01/01 02:02:41;;;;;;;61.47;37.45;;;12.50;99.90;;;;;;5051795;28;20044;-61
2023/01/01 02:05:07;;;;;;;59.97;38.35;;;12.50;99.90;;;;;;5048341;28;20428;-62
2023/01/01 02:07:34;;;;;;;60.30;38.40;;;12.50;99.90;;;;;;5048176;28;20028;-61
2023/01/01 02:10:02;;;;;;;62.63;37.63;;;12.40;99.90;;;;;;5041740;28;20057;-61
2023/01/01 02:12:28;;;;;;;61.45;38.55;;;12.40;99.90;;;;;;5045787;28;20545;-61
2023/01/01 02:14:54;;;;;;;63.65;38.97;;;12.40;99.90;;;;;;5049895;28;20044;-61
2023/01/01 02:17:46;;;;;;;64.40;39.85;;;12.40;99.90;;;;;;5041531;28;20466;-61
2023/01/01 02:20:23;;;;;;;55.30;37.93;;;12.30;99.90;;;;;;5045090;28;20041;-61
2023/01/01 02:23:34;;;;;;;58.45;38.38;;;12.30;99.90;;;;;;5047722;28;20495;-61
2023/01/01 02:26:21;;;;;;;64.45;39.80;;;12.30;99.90;;;;;;5036972;28;20060;-62
2023/01/01 02:29:12;;;;;;;67.18;39.10;;;12.30;99.90;;;;;;5051103;28;20057;-61
2023/01/01 02:31:48;;;;;;;63.00;41.60;;;12.20;99.90;;;;;;5049996;28;20049;-61
2023/01/01 02:34:18;;;;;;;62.47;40.33;;;12.20;99.90;;;;;;5049932;28;20071;-62
2023/01/01 02:36:49;;;;;;;67.47;40.63;;;12.20;99.90;;;;;;5047007;28;20435;-61
2023/01/01 02:39:19;;;;;;;62.70;41.05;;;12.20;99.90;;;;;;5051682;28;20565;-62
2023/01/01 02:41:48;;;;;;;60.78;39.90;;;12.20;99.90;;;;;;5051195;28;20044;-61
2023/01/01 02:44:15;;;;;;;59.70;37.33;;;12.20;99.90;;;;;;5050767;28;20424;-61
2023/01/01 02:46:40;;;;;;;60.42;38.13;;;12.20;99.90;;;;;;5049253;28;20434;-61
2023/01/01 02:49:06;;;;;;;59.70;38.45;;;12.20;99.90;;;;;;5045349;28;20115;-62
2023/01/01 02:51:49;;;;;;;61.25;37.50;;;12.20;99.90;;;;;;5043888;28;20068;-61
2023/01/01 02:54:17;;;;;;;54.83;33.88;;;12.20;99.90;;;;;;5047004;28;20052;-62
2023/01/01 02:57:11;;;;;;;59.38;35.78;;;12.20;99.90;;;;;;5042144;28;20202;-61
2023/01/01 03:00:26;;;;;;;55.55;33.38;;;12.10;99.90;;;;;;5046653;28;20103;-61
2023/01/01 03:03:05;;;;;;;57.17;34.55;;;12.10;99.90;;;;;;5042717;28;20136;-62
2023/01/01 03:09:10;;;;;;;56.22;32.03;;;12.10;99.90;;;;;;5044897;28;20041;-61
2023/01/01 03:12:03;;;;;;;50.70;30.98;;;12.10;99.90;;;;;;5046481;28;20145;-61
2023/01/01 03:14:47;;;;;;;61.88;35.42;;;12.00;99.90;;;;;;5047417;28;20040;-61
2023/01/01 03:17:25;;;;;;;51.25;30.20;;;12.00;99.90;;;;;;5041132;28;20099;-62
2023/01/01 03:19:54;;;;;;;47.83;28.85;;;12.00;99.90;;;;;;5047347;28;20083;-61
2023/01/01 03:22:24;;;;;;;40.17;24.45;;;11.90;99.90;;;;;;5051863;28;20080;-61
2023/01/01 03:24:58;;;;;;;41.03;22.17;;;11.90;99.90;;;;;;5049962;28;20056;-61
2023/01/01 03:27:41;;;;;;;35.95;19.58;;;11.90;99.90;;;;;;5052331;28;20207;-60
2023/01/01 03:30:09;;;;;;;30.80;17.15;;;11.90;99.90;;;;;;5053339;28;20060;-62
2023/01/01 03:33:03;;;;;;;29.35;16.00;;;11.90;99.90;;;;;;5053618;28;20044;-62
2023/01/01 03:35:49;;;;;;;29.27;14.23;;;11.90;99.90;;;;;;5052641;28;20044;-61
2023/01/01 03:38:40;;;;;;;21.55;12.60;;;11.90;99.90;;;;;;5046255;28;20445;-62
2023/01/01 03:41:20;;;;;;;22.63;12.50;;;11.90;99.90;;;;;;5053724;28;20055;-61
2023/01/01 03:44:18;;;;;;;21.75;11.82;;;11.80;99.90;;;;;;5055715;28;20044;-62
2023/01/01 03:46:45;;;;;;;19.50;10.85;;;11.70;99.90;;;;;;5051586;28;20041;-61
2023/01/01 03:49:12;;;;;;;20.67;9.75;;;11.70;99.90;;;;;;5026975;28;20040;-61
2023/01/01 03:51:56;;;;;;;21.45;9.95;;;11.70;99.90;;;;;;5051659;28;20063;-61
2023/01/01 03:54:51;;;;;;;20.08;9.98;;;11.70;99.90;;;;;;5050251;28;20095;-61
2023/01/01 03:57:34;;;;;;;20.45;9.93;;;11.70;99.90;;;;;;5050270;28;20040;-61
2023/01/01 04:00:08;;;;;;;18.83;9.45;;;11.60;99.90;;;;;;5051911;28;20380;-61
2023/01/01 04:02:39;;;;;;;22.90;9.57;;;11.60;99.90;;;;;;5053397;28;20048;-61
2023/01/01 04:05:09;;;;;;;20.67;8.80;;;11.60;99.90;;;;;;5051478;28;20048;-61
2023/01/01 04:07:34;;;;;;;20.75;7.93;;;11.50;99.90;;;;;;5053128;28;20053;-61
2023/01/01 04:10:15;;;;;;;16.20;8.25;;;11.50;99.90;;;;;;5047599;28;20097;-61
2023/01/01 04:12:44;;;;;;;12.40;6.50;;;11.50;99.90;;;;;;5050525;28;20120;-61
2023/01/01 04:15:10;;;;;;;15.23;7.18;;;11.50;99.90;;;;;;5051093;28;20048;-61
2023/01/01 04:17:36;;;;;;;13.85;5.80;;;11.50;99.90;;;;;;5030822;28;20051;-62
2023/01/01 04:20:02;;;;;;;14.25;5.82;;;11.60;99.90;;;;;;5036820;28;20119;-60
2023/01/01 04:22:28;;;;;;;14.77;5.10;;;11.60;99.90;;;;;;5048738;28;20468;-62
2023/01/01 04:24:54;;;;;;;13.40;4.93;;;11.60;99.90;;;;;;5051497;28;20079;-61
2023/01/01 04:27:20;;;;;;;12.77;4.07;;;11.60;99.90;;;;;;5047239;28;20064;-60
2023/01/01 04:29:45;;;;;;;16.50;4.28;;;11.60;99.90;;;;;;5046162;28;20045;-62
2023/01/01 04:32:11;;;;;;;12.18;3.70;;;11.60;99.90;;;;;;5050469;28;20633;-61
2023/01/01 04:34:37;;;;;;;11.98;3.47;;;11.60;99.90;;;;;;5049213;28;20056;-61
2023/01/01 04:37:03;;;;;;;11.32;2.88;;;11.60;99.90;;;;;;5049240;28;20155;-61
2023/01/01 04:39:29;;;;;;;15.38;3.45;;;11.70;99.90;;;;;;5051446;28;20067;-61
2023/01/01 04:41:55;;;;;;;13.50;3.65;;;11.70;99.90;;;;;;5048544;28;20052;-61
2023/01/01 04:44:20;;;;;;;13.95;3.95;;;11.70;99.90;;;;;;5049944;28;20059;-61
2023/01/01 04:46:46;;;;;;;14.57;4.25;;;11.70;99.90;;;;;;5050767;28;20056;-61
2023/01/01 04:49:12;;;;;;;18.75;4.45;;;11.70;99.90;;;;;;5048967;28;20522;-61
2023/01/01 04:51:38;;;;;;;23.25;4.95;;;11.70;99.90;;;;;;5049808;28;20183;-61
2023/01/01 04:54:04;;;;;;;16.33;4.65;;;11.60;99.90;;;;;;5035034;28;20699;-62
2023/01/01 04:56:30;;;;;;;17.42;4.95;;;11.60;99.90;;;;;;5048910;28;20110;-62
2023/01/01 04:58:57;;;;;;;24.73;4.70;;;11.60;99.90;;;;;;5051343;28;20041;-61
2023/01/01 05:01:25;;;;;;;19.65;4.50;;;11.60;99.90;;;;;;5050449;28;20119;-61
2023/01/01 05:03:52;;;;;;;21.02;5.13;;;11.60;99.90;;;;;;5044925;28;20135;-61
2023/01/01 05:06:18;;;;;;;23.15;5.25;;;11.50;99.90;;;;;;5048321;28;20052;-62
2023/01/01 05:08:46;;;;;;;16.95;4.78;;;11.60;99.90;;;;;;5048605;28;20036;-62
2023/01/01 05:11:15;;;;;;;24.25;6.05;;;11.60;99.90;;;;;;5047151;28;20055;-61
2023/01/01 05:13:43;;;;;;;15.68;5.30;;;11.50;99.90;;;;;;5047351;28;20045;-62
2023/01/01 05:16:12;;;;;;;14.05;4.47;;;11.50;99.90;;;;;;5051615;28;20045;-61
2023/01/01 05:18:39;;;;;;;17.83;4.88;;;11.50;99.90;;;;;;5051042;28;20491;-62
2023/01/01 05:21:12;;;;;;;18.08;4.28;;;11.50;99.90;;;;;;5049370;28;20052;-61
2023/01/01 05:23:39;;;;;;;16.38;4.68;;;11.50;99.90;;;;;;5045183;28;20152;-61
2023/01/01 05:26:12;;;;;;;17.13;4.28;;;11.50;99.90;;;;;;5049790;28;20131;-61
2023/01/01 05:28:38;;;;;;;17.08;3.78;;;11.50;99.90;;;;;;5049608;28;20041;-62
2023/01/01 05:31:11;;;;;;;11.75;3.92;;;11.60;99.90;;;;;;5051578;28;20052;-61
2023/01/01 05:33:37;;;;;;;14.50;3.58;;;11.60;99.90;;;;;;5050946;28;20037;-62
2023/01/01 05:36:05;;;;;;;10.30;3.20;;;11.60;99.90;;;;;;5048817;28;20068;-61
2023/01/01 05:38:31;;;;;;;12.63;2.60;;;11.60;99.90;;;;;;5045344;28;20045;-61
2023/01/01 05:40:57;;;;;;;17.27;3.50;;;11.70;99.90;;;;;;5051041;28;20071;-61
2023/01/01 05:43:23;;;;;;;13.15;2.42;;;11.70;99.90;;;;;;5049816;28;20434;-61
2023/01/01 05:46:02;;;;;;;16.27;2.85;;;11.70;99.90;;;;;;5049696;28;20578;-62
2023/01/01 05:48:28;;;;;;;10.75;2.78;;;11.70;99.90;;;;;;5052743;28;20047;-61
2023/01/01 05:51:00;;;;;;;8.45;2.47;;;11.70;99.90;;;;;;5048062;28;20492;-62
2023/01/01 05:53:25;;;;;;;12.00;3.07;;;11.70;99.90;;;;;;5051308;28;20041;-62
2023/01/01 05:55:52;;;;;;;14.05;2.97;;;11.70;99.90;;;;;;5028798;28;20317;-61
2023/01/01 05:58:18;;;;;;;15.85;2.55;;;11.70;99.90;;;;;;5047380;28;20052;-62
2023/01/01 06:00:44;;;;;;;10.10;2.50;;;11.70;99.90;;;;;;5046189;28;20061;-62
2023/01/01 06:03:10;;;;;;;8.18;2.22;;;11.70;99.90;;;;;;5047693;28;20135;-62
2023/01/01 06:05:36;;;;;;;11.07;2.50;;;11.70;99.90;;;;;;5050754;28;20127;-61
2023/01/01 06:08:01;;;;;;;14.07;2.67;;;11.60;99.90;;;;;;5033974;28;20056;-61
2023/01/01 06:10:27;;;;;;;10.65;3.03;;;11.60;99.90;;;;;;5046763;28;20055;-61
2023/01/01 06:12:57;;;;;;;10.13;2.35;;;11.60;99.90;;;;;;5046543;28;20128;-61
2023/01/01 06:15:25;;;;;;;14.23;2.80;;;11.60;99.90;;;;;;5044033;28;20743;-61
2023/01/01 06:17:50;;;;;;;13.90;2.38;;;11.60;99.90;;;;;;5045648;28;20044;-62
2023/01/01 06:20:16;;;;;;;10.18;2.40;;;11.50;99.90;;;;;;5049508;28;20406;-61
2023/01/01 06:22:42;;;;;;;8.70;2.53;;;11.50;99.90;;;;;;5048636;28;20162;-62
2023/01/01 06:25:09;;;;;;;8.73;2.20;;;11.50;99.90;;;;;;5048185;28;20187;-62
2023/01/01 06:27:35;;;;;;;8.52;2.00;;;11.50;99.90;;;;;;5050251;28;20411;-62
2023/01/01 06:30:02;;;;;;;7.57;2.05;;;11.40;99.90;;;;;;5046404;28;20048;-62
2023/01/01 06:32:28;;;;;;;9.90;2.38;;;11.40;99.90;;;;;;5049889;28;20041;-62
2023/01/01 06:34:54;;;;;;;8.07;1.90;;;11.40;99.90;;;;;;5045634;28;20052;-61
2023/01/01 06:37:20;;;;;;;10.13;2.10;;;11.40;99.90;;;;;;5046679;28;20066;-62
2023/01/01 06:39:45;;;;;;;9.27;1.90;;;11.40;99.90;;;;;;5042927;28;20178;-61
2023/01/01 06:42:11;;;;;;;11.25;1.92;;;11.30;99.90;;;;;;5045810;28;20091;-62
2023/01/01 06:44:37;;;;;;;15.18;2.70;;;11.30;99.90;;;;;;5047371;28;20059;-62
2023/01/01 06:47:03;;;;;;;11.50;2.33;;;11.30;99.90;;;;;;5025342;28;20111;-62
2023/01/01 06:49:28;;;;;;;12.35;2.20;;;11.30;99.90;;;;;;5029288;28;20055;-62
2023/01/01 06:51:54;;;;;;;12.65;2.35;;;11.30;99.90;;;;;;5029408;28;20056;-62
2023/01/01 06:54:20;;;;;;;13.95;1.98;;;11.30;99.90;;;;;;5019655;28;20152;-62
2023/01/01 06:56:46;;;;;;;14.85;2.53;;;11.30;99.90;;;;;;5025620;28;20053;-61
2023/01/01 06:59:12;;;;;;;15.77;2.63;;;11.20;99.90;;;;;;5050375;28;20052;-61
2023/01/01 07:01:40;;;;;;;16.58;2.85;;;11.30;99.90;;;;;;5046160;28;20503;-60
2023/01/01 07:04:10;;;;;;;16.15;2.60;;;11.20;99.90;;;;;;5049986;28;20048;-61
2023/01/01 07:06:37;;;;;;;17.20;2.30;;;11.20;99.90;;;;;;5050397;28;20105;-61
2023/01/01 07:09:04;;;;;;;9.00;2.15;;;11.20;99.90;;;;;;5045189;28;20045;-59
2023/01/01 07:11:30;;;;;;;16.33;2.83;;;11.10;99.90;;;;;;5049949;28;20147;-61
2023/01/01 07:13:56;;;;;;;17.48;2.95;;;11.20;99.90;;;;;;5035681;28;20055;-61
2023/01/01 07:16:23;;;;;;;19.70;3.65;;;11.10;99.90;;;;;;5038762;28;20053;-61
2023/01/01 07:18:49;;;;;;;18.65;3.03;;;11.10;99.90;;;;;;5029490;28;20055;-61
2023/01/01 07:21:37;;;;;;;17.42;3.03;;;11.10;99.90;;;;;;5047073;28;20055;-61
2023/01/01 07:24:05;;;;;;;19.08;2.92;;;11.10;99.90;;;;;;5045277;28;20048;-62
2023/01/01 07:26:32;;;;;;;24.13;3.88;;;11.10;99.90;;;;;;5049033;28;20052;-62
2023/01/01 07:28:58;;;;;;;16.55;2.80;;;11.10;99.90;;;;;;5048184;28;20048;-62
2023/01/01 07:31:24;;;;;;;16.23;2.95;;;11.00;99.90;;;;;;5044502;28;20126;-61
2023/01/01 07:33:50;;;;;;;20.45;3.13;;;11.00;99.90;;;;;;5047159;28;20053;-62
2023/01/01 07:36:15;;;;;;;19.15;2.72;;;11.00;99.90;;;;;;5045628;28;20147;-62
2023/01/01 07:38:41;;;;;;;20.88;3.38;;;11.00;99.90;;;;;;5054909;28;20119;-62
2023/01/01 07:41:08;;;;;;;17.10;3.50;;;10.90;99.90;;;;;;5048067;28;20060;-62
2023/01/01 07:43:34;;;;;;;17.92;3.35;;;10.90;99.90;;;;;;5046580;28;20122;-62
2023/01/01 07:46:00;;;;;;;25.60;3.58;;;10.90;99.90;;;;;;5051850;28;20061;-62
2023/01/01 07:48:26;;;;;;;19.65;3.08;;;10.90;99.90;;;;;;5046939;28;20036;-62
2023/01/01 07:50:52;;;;;;;20.27;4.03;;;10.90;99.90;;;;;;5051077;28;20071;-62
2023/01/01 07:53:18;;;;;;;23.67;3.60;;;10.90;99.90;;;;;;5050269;28;20495;-62
2023/01/01 07:55:44;;;;;;;21.70;3.58;;;10.90;99.90;;;;;;5043728;28;20053;-62
2023/01/01 07:58:11;;;;;;;25.42;3.83;;;10.90;99.90;;;;;;5050325;28;20048;-62
2023/01/01 08:00:37;;;;;;;23.88;4.03;;;10.90;99.90;;;;;;5051062;28;20131;-61
2023/01/01 08:03:04;;;;;;;19.33;3.25;;;10.90;99.90;;;;;;5051719;28;20041;-62
2023/01/01 08:05:31;;;;;;;19.00;3.95;;;10.80;99.90;;;;;;5051179;28;20041;-62
2023/01/01 08:07:57;;;;;;;25.00;4.45;;;10.80;99.90;;;;;;5050550;28;20045;-62
2023/01/01 08:10:23;;;;;;;27.33;4.38;;;10.80;99.90;;;;;;5046911;28;20060;-62
2023/01/01 08:12:48;;;;;;;18.08;3.65;;;10.80;99.90;;;;;;5051736;28;20056;-62
2023/01/01 08:15:15;;;;;;;23.25;3.70;;;10.80;99.90;;;;;;5047063;28;20048;-62
2023/01/01 08:17:41;;;;;;;23.48;3.50;;;10.80;99.90;;;;;;5048043;28;20051;-62
2023/01/01 08:20:07;;;;;;;22.55;3.63;;;10.80;99.90;;;;;;5049541;28;20041;-62
2023/01/01 08:22:34;;;;;;;22.65;3.65;;;10.70;99.90;;;;;;5049516;28;20964;-61
2023/01/01 08:25:00;;;;;;;29.73;4.30;;;10.80;99.90;;;;;;5048359;28;20091;-62
2023/01/01 08:27:25;;;;;;;25.48;4.43;;;10.80;99.90;;;;;;5045665;28;20479;-62
2023/01/01 08:29:51;;;;;;;30.30;4.07;;;10.80;99.90;;;;;;5028855;28;20041;-62
2023/01/01 08:32:17;;;;;;;22.92;3.70;;;10.80;99.90;;;;;;5052753;28;20048;-62
2023/01/01 08:34:43;;;;;;;23.10;3.45;;;10.80;99.90;;;;;;5048886;28;20521;-62
2023/01/01 08:37:15;;;;;;;25.67;3.85;;;10.80;99.90;;;;;;5046747;28;20124;-62
2023/01/01 08:39:40;;;;;;;23.42;4.07;;;10.80;99.90;;;;;;5028393;28;20051;-62
2023/01/01 08:42:06;;;;;;;28.85;4.18;;;10.80;99.90;;;;;;5041589;28;20505;-62
2023/01/01 08:44:32;;;;;;;29.35;3.92;;;10.80;99.90;;;;;;5047589;28;20041;-62
2023/01/01 08:46:58;;;;;;;26.92;4.00;;;10.80;99.90;;;;;;5045371;28;20495;-62
2023/01/01 08:49:24;;;;;;;24.20;4.40;;;10.80;99.90;;;;;;5043868;28;20045;-62
2023/01/01 08:51:50;;;;;;;21.42;4.15;;;10.80;99.90;;;;;;5044465;28;20060;-61
2023/01/01 08:54:16;;;;;;;29.92;3.78;;;10.80;99.90;;;;;;5054687;28;20045;-62
2023/01/01 08:56:42;;;;;;;25.13;4.90;;;10.80;99.90;;;;;;5047440;28;20040;-62
2023/01/01 08:59:07;;;;;;;20.45;3.47;;;10.80;99.90;;;;;;5044834;28;20444;-62
2023/01/01 09:01:33;;;;;;;21.52;3.92;;;10.80;99.90;;;;;;5045177;28;20094;-62
2023/01/01 09:03:59;;;;;;;21.95;3.90;;;10.80;99.90;;;;;;5044641;28;20059;-62
2023/01/01 09:06:25;;;;;;;24.00;4.10;;;10.80;99.90;;;;;;5046428;28;20600;-62
2023/01/01 09:08:50;;;;;;;27.77;4.65;;;10.80;99.90;;;;;;5042376;28;20483;-62
2023/01/01 09:11:27;;;;;;;28.17;4.38;;;10.80;99.90;;;;;;5045812;28;20401;-62
2023/01/01 09:13:53;;;;;;;20.35;4.28;;;10.80;99.90;;;;;;5036876;28;20072;-63
2023/01/01 09:16:20;;;;;;;24.80;4.35;;;10.80;99.90;;;;;;5035510;28;20052;-63
2023/01/01 09:18:46;;;;;;;25.00;4.20;;;10.80;99.90;;;;;;5036591;28;20465;-63
2023/01/01 09:21:12;;;;;;;24.00;4.47;;;10.80;99.90;;;;;;5050071;28;20208;-63
2023/01/01 09:23:38;;;;;;;26.35;4.22;;;10.80;99.90;;;;;;5039690;28;20059;-62
2023/01/01 09:26:08;;;;;;;24.90;4.28;;;10.80;99.90;;;;;;5043051;28;20049;-64
2023/01/01 09:28:34;;;;;;;29.67;4.78;;;10.80;99.90;;;;;;5044257;28;20321;-63
2023/01/01 09:31:00;;;;;;;26.88;3.83;;;10.80;99.90;;;;;;5031143;28;20070;-64
2023/01/01 09:33:27;;;;;;;26.23;4.40;;;10.80;99.90;;;;;;5031308;28;20045;-63
2023/01/01 09:35:53;;;;;;;24.05;3.88;;;10.90;99.90;;;;;;5052953;28;20048;-63
2023/01/01 09:38:19;;;;;;;28.30;4.78;;;10.80;99.90;;;;;;5051558;28;20497;-63
2023/01/01 09:41:03;;;;;;;23.98;4.18;;;10.80;99.90;;;;;;5049477;28;20060;-63
2023/01/01 09:43:48;;;;;;;28.77;4.82;;;10.80;99.90;;;;;;5050718;28;20075;-63
2023/01/01 09:46:14;;;;;;;24.25;4.22;;;10.80;99.90;;;;;;5050940;28;20233;-64
2023/01/01 09:48:56;;;;;;;32.20;5.45;;;10.80;99.90;;;;;;5036231;28;20053;-64
2023/01/01 09:51:24;;;;;;;26.23;3.65;;;10.90;99.90;;;;;;5051230;28;20106;-64
2023/01/01 09:53:56;;;;;;;23.95;4.13;;;10.90;99.90;;;;;;5053114;28;20483;-64
2023/01/01 09:56:26;;;;;;;24.73;4.07;;;10.90;99.90;;;;;;5050634;28;20029;-64
2023/01/01 09:58:52;;;;;;;31.83;4.72;;;10.90;99.90;;;;;;5051200;28;20157;-63
2023/01/01 10:01:34;;;;;;;24.55;4.30;;;10.90;99.90;;;;;;5050739;28;20095;-63
2023/01/01 10:04:00;;;;;;;22.23;3.95;;;11.00;99.90;;;;;;5043799;28;20060;-64
2023/01/01 10:06:37;;;;;;;27.10;4.68;;;11.00;99.90;;;;;;5049051;28;20045;-63
2023/01/01 10:09:19;;;;;;;25.92;4.70;;;11.00;99.90;;;;;;5051414;28;20051;-63
2023/01/01 10:12:02;;;;;;;31.08;3.80;;;11.00;99.90;;;;;;5051540;28;20049;-63
2023/01/01 10:14:44;;;;;;;23.83;4.32;;;11.10;99.90;;;;;;5059275;28;20050;-63
2023/01/01 10:17:36;;;;;;;29.88;4.45;;;11.10;99.90;;;;;;5050249;28;20120;-64
2023/01/01 10:20:23;;;;;;;24.35;4.60;;;11.20;99.90;;;;;;5051517;28;20044;-63
2023/01/01 10:22:54;;;;;;;18.90;4.00;;;11.30;99.90;;;;;;5051194;28;20487;-64
2023/01/01 10:25:30;;;;;;;21.30;3.75;;;11.30;99.90;;;;;;5050596;28;20052;-63
2023/01/01 10:28:10;;;;;;;27.20;4.43;;;11.40;99.90;;;;;;5051726;28;20420;-63
2023/01/01 10:30:36;;;;;;;26.20;4.40;;;11.40;99.90;;;;;;5050300;28;20127;-63
2023/01/01 10:33:08;;;;;;;32.47;4.40;;;11.40;99.90;;;;;;5056108;28;20070;-63
2023/01/01 10:35:42;;;;;;;23.90;4.07;;;11.40;99.90;;;;;;5053887;28;20429;-64
2023/01/01 10:38:22;;;;;;;29.38;4.53;;;11.30;99.90;;;;;;5055065;28;20048;-63
2023/01/01 10:40:49;;;;;;;31.23;4.28;;;11.20;99.90;;;;;;5053079;28;20452;-63
2023/01/01 10:43:15;;;;;;;24.45;4.13;;;11.20;99.90;;;;;;5056792;28;20510;-64
2023/01/01 10:45:45;;;;;;;31.92;4.03;;;11.20;99.90;;;;;;5051779;28;20044;-64
2023/01/01 10:48:22;;;;;;;25.30;3.97;;;11.20;99.90;;;;;;5054329;28;20048;-63
2023/01/01 10:51:02;;;;;;;25.58;3.72;;;11.20;99.90;;;;;;5055414;28;20491;-63
2023/01/01 10:53:41;;;;;;;24.20;3.65;;;11.20;99.90;;;;;;5053708;28;20048;-63
2023/01/01 10:56:12;;;;;;;18.05;3.35;;;11.10;99.90;;;;;;5052949;28;20040;-63
2023/01/01 10:58:47;;;;;;;21.33;3.90;;;11.10;99.90;;;;;;5052838;28;20044;-64
2023/01/01 11:01:16;;;;;;;23.45;3.90;;;11.10;99.90;;;;;;5053846;28;20068;-63
2023/01/01 11:03:52;;;;;;;21.40;3.30;;;11.10;99.90;;;;;;5054195;28;20040;-64
2023/01/01 11:06:27;;;;;;;17.92;2.85;;;11.20;99.90;;;;;;5053860;28;20049;-63
2023/01/01 11:08:58;;;;;;;16.80;3.45;;;11.20;99.90;;;;;;5055740;28;20102;-63
2023/01/01 11:11:38;;;;;;;19.75;4.00;;;11.20;99.90;;;;;;5053937;28;20054;-63
2023/01/01 11:14:04;;;;;;;20.13;3.92;;;11.30;99.90;;;;;;5055026;28;20040;-63
2023/01/01 11:16:32;;;;;;;23.55;4.03;;;11.30;99.90;;;;;;5053324;28;20059;-63
2023/01/01 11:19:16;;;;;;;21.90;3.40;;;11.40;99.90;;;;;;5029037;28;20064;-63
2023/01/01 11:21:46;;;;;;;19.50;3.47;;;11.40;99.90;;;;;;5053410;28;20564;-63
2023/01/01 11:24:22;;;;;;;17.38;3.75;;;11.50;99.90;;;;;;5055546;28;20053;-63
2023/01/01 11:26:48;;;;;;;26.48;3.50;;;11.50;99.90;;;;;;5054269;28;20056;-63
2023/01/01 11:29:25;;;;;;;18.63;3.40;;;11.40;99.90;;;;;;5051322;28;20052;-64
2023/01/01 11:31:52;;;;;;;20.83;3.22;;;11.40;99.90;;;;;;5052397;28;20063;-63
2023/01/01 11:34:38;;;;;;;23.17;3.47;;;11.40;99.90;;;;;;5055023;28;20046;-63
2023/01/01 11:37:25;;;;;;;23.00;3.38;;;11.40;99.90;;;;;;5055573;28;20119;-63
2023/01/01 11:39:53;;;;;;;20.33;3.80;;;11.40;99.90;;;;;;5061766;28;20037;-63
2023/01/01 11:42:23;;;;;;;25.55;3.75;;;11.40;99.90;;;;;;5038626;28;20060;-63
2023/01/01 11:44:55;;;;;;;21.90;3.25;;;11.40;99.90;;;;;;5055317;28;20444;-63
2023/01/01 11:47:42;;;;;;;28.65;3.25;;;11.40;99.90;;;;;;5035902;28;20191;-63
2023/01/01 11:50:17;;;;;;;26.02;3.60;;;11.40;99.90;;;;;;5052531;28;20072;-62
2023/01/01 11:52:49;;;;;;;20.80;3.42;;;11.40;99.90;;;;;;5054182;28;20053;-63
2023/01/01 11:55:30;;;;;;;12.73;2.90;;;11.40;99.90;;;;;;5052143;28;20049;-64
2023/01/01 11:58:14;;;;;;;17.90;3.58;;;11.40;99.90;;;;;;5050374;28;20384;-63
2023/01/01 12:00:40;;;;;;;20.13;3.15;;;11.40;99.90;;;;;;5049723;28;20063;-63
2023/01/01 12:03:14;;;;;;;21.70;3.67;;;11.40;99.90;;;;;;5053983;28;20157;-64
2023/01/01 12:05:46;;;;;;;18.77;3.28;;;11.40;99.90;;;;;;5051509;28;20062;-63
2023/01/01 12:08:18;;;;;;;20.52;3.25;;;11.40;99.90;;;;;;5052577;28;20044;-63
2023/01/01 12:11:19;;;;;;;21.95;4.07;;;11.50;99.90;;;;;;5052814;28;21388;-63
2023/01/01 12:13:54;;;;;;;17.23;3.55;;;11.50;99.90;;;;;;5053567;28;20053;-65
2023/01/01 12:16:37;;;;;;;21.23;3.08;;;11.50;99.90;;;;;;5051779;28;20976;-64
2023/01/01 12:19:14;;;;;;;14.20;2.95;;;11.60;99.90;;;;;;5053018;28;20060;-63
2023/01/01 12:21:42;;;;;;;19.25;3.45;;;11.60;99.90;;;;;;5053605;28;20433;-63
2023/01/01 12:24:11;;;;;;;29.95;4.45;;;11.60;99.90;;;;;;5053693;28;20087;-63
2023/01/01 12:27:05;;;;;;;22.48;4.05;;;11.60;99.90;;;;;;5052842;28;20036;-64
2023/01/01 12:29:49;;;;;;;18.77;3.40;;;11.60;99.90;;;;;;5052377;28;20040;-64
2023/01/01 12:32:39;;;;;;;13.13;2.65;;;11.60;99.90;;;;;;5052495;28;20048;-63
2023/01/01 12:35:19;;;;;;;18.17;3.03;;;11.60;99.90;;;;;;5051893;28;20048;-64
2023/01/01 12:38:15;;;;;;;15.25;3.20;;;11.60;99.90;;;;;;5062321;28;20076;-64
2023/01/01 12:41:12;;;;;;;20.92;3.97;;;11.60;99.90;;;;;;5045701;28;20041;-63
2023/01/01 12:44:15;;;;;;;12.23;3.08;;;11.70;99.90;;;;;;5035196;28;20091;-63
2023/01/01 12:47:16;;;;;;;17.70;3.33;;;11.70;99.90;;;;;;5061887;28;20120;-63
2023/01/01 12:49:56;;;;;;;20.08;3.42;;;11.70;99.90;;;;;;5051890;28;20056;-63
2023/01/01 12:52:28;;;;;;;24.73;3.78;;;11.70;99.90;;;;;;5047255;28;20080;-64
2023/01/01 12:55:15;;;;;;;31.02;3.65;;;11.70;99.90;;;;;;5050113;28;20090;-63
2023/01/01 12:57:48;;;;;;;14.40;3.35;;;11.70;99.90;;;;;;5049031;28;20059;-63
2023/01/01 13:00:17;;;;;;;19.55;3.08;;;11.70;99.90;;;;;;5053278;28;20064;-63